Startpagina
METAR-TAF:

METAR-TAF

Vliegvelden :

Ankara Esenboğa, Turkije

Luchthaven Ankara Esenboga

breedte: 40-07N, lengte: 032-59E, hoogte: 953 m

Actueel weer

Dit bericht is 20 uur en het 23 minuten geleden gemaakt, om 14:50 UTC
Wind 6 kt uit het zuiden
Temperatuur 10°C
Vochtigheid 37%
Druk 1011 hPa
Zicht 10 km of meer
Verspreide wolken op 4000 ft
Gebroken wolken op 10000 ft

METAR: LTAC 201450Z 19006KT 9999 SCT040 BKN100 10/M04 Q1011 NOSIG RMK RWY21L 17006KT RWY03L 18005KT RWY21R 20007KT

Tijdstip: 14:13 (11:13 UTC)

Verwachting

Dit bericht is 24 uur en het 33 minuten geleden gemaakt, om 10:40 UTC
Verwachting geldig van 20 om 12 UTC tot 21 om 12 UTC
Wind 2 kt uit variabele richting
Zicht 10 km of meer
Verspreide wolken op 4000 ft
Gebroken wolken op 20000 ft
Wijzigt naar
van 21 om 06 UTC tot 21 om 08 UTC
Gebroken wolken op 3000 ft
Gebroken wolken op 8000 ft
lichte regenbuien

TAF: LTAC 201040Z 2012/2112 VRB02KT 9999 SCT040 BKN200 BECMG 2106/2108 -SHRA BKN030 BKN080

Waarnemingen en weersverwachtingen van meer dan 4000 vliegvelden (METAR en TAF).

De beschikbare stations zijn de gele en rode punten op de kaart.

Ga met uw muis naar het station om de naam te zien.

Klik dan om waarnemingen en weersverwachtingen te zien.

kaart wijzigen: klik op de groene knoppen met een zwart kruis om in te zoomen, op de groene knop met een streepje om uit te zoomen of op de groene pijlen voor aangrenzende kaarten.


METAR-TAF: